sensor_id;sensor_type;location;lat;lon;timestamp;temperature;humidity
909;DHT22;441;51.192;6.788;2022-10-16T07:14:16;20.10;99.90
909;DHT22;441;51.192;6.788;2022-10-16T07:16:44;20.10;99.90
909;DHT22;441;51.192;6.788;2022-10-16T07:19:11;20.10;99.90
909;DHT22;441;51.192;6.788;2022-10-16T07:21:40;20.20;99.90
909;DHT22;441;51.192;6.788;2022-10-16T07:24:12;20.20;99.90
909;DHT22;441;51.192;6.788;2022-10-16T07:26:39;20.30;99.90
909;DHT22;441;51.192;6.788;2022-10-16T07:29:07;20.30;99.90
909;DHT22;441;51.192;6.788;2022-10-16T07:31:36;20.40;99.90
909;DHT22;441;51.192;6.788;2022-10-16T07:34:04;20.40;99.90
909;DHT22;441;51.192;6.788;2022-10-16T07:36:31;20.40;99.90
909;DHT22;441;51.192;6.788;2022-10-16T07:38:58;20.50;99.90
909;DHT22;441;51.192;6.788;2022-10-16T07:41:25;20.50;99.90
909;DHT22;441;51.192;6.788;2022-10-16T07:43:53;20.50;99.90
909;DHT22;441;51.192;6.788;2022-10-16T07:46:22;20.50;99.90
909;DHT22;441;51.192;6.788;2022-10-16T07:48:50;20.50;99.90
909;DHT22;441;51.192;6.788;2022-10-16T07:51:19;20.50;99.90
909;DHT22;441;51.192;6.788;2022-10-16T07:53:46;20.60;99.90
909;DHT22;441;51.192;6.788;2022-10-16T07:56:13;20.60;99.90
909;DHT22;441;51.192;6.788;2022-10-16T07:58:41;20.60;99.90
909;DHT22;441;51.192;6.788;2022-10-16T08:01:09;20.60;99.90
909;DHT22;441;51.192;6.788;2022-10-16T08:03:36;20.70;99.90
909;DHT22;441;51.192;6.788;2022-10-16T08:06:05;20.60;99.90
909;DHT22;441;51.192;6.788;2022-10-16T08:08:32;20.70;99.90
909;DHT22;441;51.192;6.788;2022-10-16T08:10:58;20.70;99.90
909;DHT22;441;51.192;6.788;2022-10-16T08:13:25;20.70;99.90
909;DHT22;441;51.192;6.788;2022-10-16T08:15:54;20.70;99.90
909;DHT22;441;51.192;6.788;2022-10-16T08:18:21;20.70;99.90
909;DHT22;441;51.192;6.788;2022-10-16T08:20:55;20.70;99.90
909;DHT22;441;51.192;6.788;2022-10-16T08:23:24;20.70;99.90
909;DHT22;441;51.192;6.788;2022-10-16T08:25:51;20.70;99.90
909;DHT22;441;51.192;6.788;2022-10-16T08:28:19;20.70;99.90
909;DHT22;441;51.192;6.788;2022-10-16T08:30:46;20.60;99.90
909;DHT22;441;51.192;6.788;2022-10-16T08:33:13;20.70;99.90
909;DHT22;441;51.192;6.788;2022-10-16T08:35:40;20.70;99.90
909;DHT22;441;51.192;6.788;2022-10-16T08:38:07;20.80;99.90
909;DHT22;441;51.192;6.788;2022-10-16T08:40:36;20.80;99.90
909;DHT22;441;51.192;6.788;2022-10-16T08:43:25;20.80;99.90
909;DHT22;441;51.192;6.788;2022-10-16T08:46:15;20.70;99.90
909;DHT22;441;51.192;6.788;2022-10-16T08:48:47;20.80;99.90
909;DHT22;441;51.192;6.788;2022-10-16T08:51:19;20.80;99.90
909;DHT22;441;51.192;6.788;2022-10-16T08:53:52;20.80;99.90
909;DHT22;441;51.192;6.788;2022-10-16T08:56:22;20.80;99.90
909;DHT22;441;51.192;6.788;2022-10-16T08:58:50;20.80;99.90
909;DHT22;441;51.192;6.788;2022-10-16T09:01:19;20.70;99.90
909;DHT22;441;51.192;6.788;2022-10-16T09:04:08;20.80;99.90
909;DHT22;441;51.192;6.788;2022-10-16T09:06:46;20.90;99.90
909;DHT22;441;51.192;6.788;2022-10-16T09:09:35;20.90;99.90
909;DHT22;441;51.192;6.788;2022-10-16T09:12:10;20.90;99.90
909;DHT22;441;51.192;6.788;2022-10-16T09:14:58;20.90;99.90
909;DHT22;441;51.192;6.788;2022-10-16T09:17:37;20.90;99.90
909;DHT22;441;51.192;6.788;2022-10-16T09:20:17;20.90;99.90
909;DHT22;441;51.192;6.788;2022-10-16T09:22:46;20.90;99.90
909;DHT22;441;51.192;6.788;2022-10-16T09:25:15;20.90;99.90
909;DHT22;441;51.192;6.788;2022-10-16T09:27:46;21.00;99.90
909;DHT22;441;51.192;6.788;2022-10-16T09:30:16;20.90;99.90
909;DHT22;441;51.192;6.788;2022-10-16T09:32:44;20.90;99.90
909;DHT22;441;51.192;6.788;2022-10-16T09:35:14;20.90;99.90
909;DHT22;441;51.192;6.788;2022-10-16T09:37:43;20.90;99.90
909;DHT22;441;51.192;6.788;2022-10-16T09:40:24;20.80;99.90
909;DHT22;441;51.192;6.788;2022-10-16T09:42:56;20.80;99.90
909;DHT22;441;51.192;6.788;2022-10-16T09:45:24;20.80;99.90
909;DHT22;441;51.192;6.788;2022-10-16T09:47:51;20.80;99.90
909;DHT22;441;51.192;6.788;2022-10-16T09:50:24;20.80;99.90
909;DHT22;441;51.192;6.788;2022-10-16T09:53:07;20.80;99.90
909;DHT22;441;51.192;6.788;2022-10-16T09:55:35;20.80;99.90
909;DHT22;441;51.192;6.788;2022-10-16T09:58:03;20.80;99.90
909;DHT22;441;51.192;6.788;2022-10-16T10:00:41;20.80;99.90
909;DHT22;441;51.192;6.788;2022-10-16T10:03:30;20.80;99.90
909;DHT22;441;51.192;6.788;2022-10-16T10:06:01;20.70;99.90
909;DHT22;441;51.192;6.788;2022-10-16T10:08:30;20.70;99.90
909;DHT22;441;51.192;6.788;2022-10-16T10:10:57;20.70;99.90
909;DHT22;441;51.192;6.788;2022-10-16T10:13:25;20.80;99.90
909;DHT22;441;51.192;6.788;2022-10-16T10:15:53;20.80;99.90
909;DHT22;441;51.192;6.788;2022-10-16T10:18:22;20.90;99.90
909;DHT22;441;51.192;6.788;2022-10-16T10:20:57;20.90;99.90
909;DHT22;441;51.192;6.788;2022-10-16T10:23:26;20.90;99.90
909;DHT22;441;51.192;6.788;2022-10-16T10:25:59;21.00;99.90
909;DHT22;441;51.192;6.788;2022-10-16T10:28:49;21.00;99.90
909;DHT22;441;51.192;6.788;2022-10-16T10:31:23;21.00;99.90
909;DHT22;441;51.192;6.788;2022-10-16T10:33:56;21.00;99.90
909;DHT22;441;51.192;6.788;2022-10-16T10:36:30;21.00;99.90
909;DHT22;441;51.192;6.788;2022-10-16T10:39:00;21.00;99.90
909;DHT22;441;51.192;6.788;2022-10-16T10:45:11;21.10;99.90
909;DHT22;441;51.192;6.788;2022-10-16T10:47:53;21.10;99.90
909;DHT22;441;51.192;6.788;2022-10-16T10:50:25;21.10;99.90
909;DHT22;441;51.192;6.788;2022-10-16T10:53:01;21.10;99.90
909;DHT22;441;51.192;6.788;2022-10-16T16:11:42;21.20;99.90
909;DHT22;441;51.192;6.788;2022-10-16T16:14:11;21.20;99.90
909;DHT22;441;51.192;6.788;2022-10-16T16:16:38;21.30;99.90
909;DHT22;441;51.192;6.788;2022-10-16T16:19:07;21.30;99.90
909;DHT22;441;51.192;6.788;2022-10-16T16:21:35;21.40;99.90
909;DHT22;441;51.192;6.788;2022-10-16T16:24:02;21.40;99.90
909;DHT22;441;51.192;6.788;2022-10-16T16:26:34;21.40;99.90
909;DHT22;441;51.192;6.788;2022-10-16T16:29:03;21.50;99.90
909;DHT22;441;51.192;6.788;2022-10-16T16:31:31;21.50;99.90
909;DHT22;441;51.192;6.788;2022-10-16T16:33:59;21.50;99.90
909;DHT22;441;51.192;6.788;2022-10-16T16:36:26;21.60;99.90
909;DHT22;441;51.192;6.788;2022-10-16T16:38:52;21.60;99.90
909;DHT22;441;51.192;6.788;2022-10-16T16:41:21;21.60;99.90
909;DHT22;441;51.192;6.788;2022-10-16T16:43:48;21.60;99.90
909;DHT22;441;51.192;6.788;2022-10-16T16:46:18;21.60;99.90
909;DHT22;441;51.192;6.788;2022-10-16T16:48:45;21.60;99.90
909;DHT22;441;51.192;6.788;2022-10-16T16:51:16;21.70;99.90
909;DHT22;441;51.192;6.788;2022-10-16T16:53:46;21.70;99.90
909;DHT22;441;51.192;6.788;2022-10-16T16:56:14;21.70;99.90
909;DHT22;441;51.192;6.788;2022-10-16T16:58:41;21.70;99.90
909;DHT22;441;51.192;6.788;2022-10-16T17:01:10;21.70;99.90
909;DHT22;441;51.192;6.788;2022-10-16T17:03:41;21.70;99.90
909;DHT22;441;51.192;6.788;2022-10-16T17:06:10;21.70;99.90
909;DHT22;441;51.192;6.788;2022-10-16T17:08:38;21.80;99.90
909;DHT22;441;51.192;6.788;2022-10-16T17:11:06;21.80;99.90
909;DHT22;441;51.192;6.788;2022-10-16T17:13:38;21.80;99.90
909;DHT22;441;51.192;6.788;2022-10-16T17:16:06;21.90;99.90
909;DHT22;441;51.192;6.788;2022-10-16T17:18:33;21.90;99.90
909;DHT22;441;51.192;6.788;2022-10-16T17:21:04;21.90;99.90
909;DHT22;441;51.192;6.788;2022-10-16T17:23:31;21.80;99.90
909;DHT22;441;51.192;6.788;2022-10-16T17:26:03;21.80;99.90
909;DHT22;441;51.192;6.788;2022-10-16T17:28:30;21.80;99.90
909;DHT22;441;51.192;6.788;2022-10-16T17:31:07;21.80;99.90
909;DHT22;441;51.192;6.788;2022-10-16T17:33:34;21.80;99.90
909;DHT22;441;51.192;6.788;2022-10-16T17:36:03;21.70;99.90
909;DHT22;441;51.192;6.788;2022-10-16T17:38:30;21.70;99.90
909;DHT22;441;51.192;6.788;2022-10-16T17:40:57;21.70;99.90
909;DHT22;441;51.192;6.788;2022-10-16T17:43:24;21.80;99.90
909;DHT22;441;51.192;6.788;2022-10-16T17:45:51;21.70;99.90
909;DHT22;441;51.192;6.788;2022-10-16T17:48:18;21.70;99.90
909;DHT22;441;51.192;6.788;2022-10-16T17:50:45;21.70;99.90
909;DHT22;441;51.192;6.788;2022-10-16T17:53:14;21.70;99.90
909;DHT22;441;51.192;6.788;2022-10-16T17:55:41;21.80;99.90
909;DHT22;441;51.192;6.788;2022-10-16T17:58:08;21.80;99.90
909;DHT22;441;51.192;6.788;2022-10-16T18:00:35;21.70;99.90
909;DHT22;441;51.192;6.788;2022-10-16T18:03:02;21.80;99.90
909;DHT22;441;51.192;6.788;2022-10-16T18:05:30;21.80;99.90
909;DHT22;441;51.192;6.788;2022-10-16T18:07:57;21.70;99.90
909;DHT22;441;51.192;6.788;2022-10-16T18:10:25;21.80;99.90
909;DHT22;441;51.192;6.788;2022-10-16T18:12:52;21.80;99.90
909;DHT22;441;51.192;6.788;2022-10-16T18:15:19;21.80;99.90
909;DHT22;441;51.192;6.788;2022-10-16T18:17:46;21.80;99.90
909;DHT22;441;51.192;6.788;2022-10-16T18:20:13;21.80;99.90
909;DHT22;441;51.192;6.788;2022-10-16T18:22:39;21.80;99.90
909;DHT22;441;51.192;6.788;2022-10-16T18:25:07;21.80;99.90
909;DHT22;441;51.192;6.788;2022-10-16T18:27:36;21.80;99.90
909;DHT22;441;51.192;6.788;2022-10-16T18:30:03;21.80;99.90
909;DHT22;441;51.192;6.788;2022-10-16T18:32:30;21.80;99.90
909;DHT22;441;51.192;6.788;2022-10-16T18:34:57;21.80;99.90
909;DHT22;441;51.192;6.788;2022-10-16T18:37:25;21.90;99.90
909;DHT22;441;51.192;6.788;2022-10-16T18:39:52;21.80;99.90
909;DHT22;441;51.192;6.788;2022-10-16T18:42:19;21.90;99.90
909;DHT22;441;51.192;6.788;2022-10-16T18:44:48;21.80;99.90
909;DHT22;441;51.192;6.788;2022-10-16T18:47:14;21.80;99.90
909;DHT22;441;51.192;6.788;2022-10-16T18:49:41;21.90;99.90
909;DHT22;441;51.192;6.788;2022-10-16T18:52:11;21.90;99.90
909;DHT22;441;51.192;6.788;2022-10-16T18:54:37;21.90;99.90
909;DHT22;441;51.192;6.788;2022-10-16T18:57:05;21.90;99.90
909;DHT22;441;51.192;6.788;2022-10-16T18:59:32;21.90;99.90
909;DHT22;441;51.192;6.788;2022-10-16T19:02:01;21.90;99.90
909;DHT22;441;51.192;6.788;2022-10-16T19:04:28;21.80;99.90
909;DHT22;441;51.192;6.788;2022-10-16T19:06:55;21.90;99.90
909;DHT22;441;51.192;6.788;2022-10-16T19:09:23;21.90;99.90
909;DHT22;441;51.192;6.788;2022-10-16T19:11:50;21.90;99.90
909;DHT22;441;51.192;6.788;2022-10-16T19:14:17;21.90;99.90
909;DHT22;441;51.192;6.788;2022-10-16T19:16:45;21.90;99.90
909;DHT22;441;51.192;6.788;2022-10-16T19:19:16;21.80;99.90
909;DHT22;441;51.192;6.788;2022-10-16T19:21:44;21.90;99.90
909;DHT22;441;51.192;6.788;2022-10-16T19:24:13;21.90;99.90
909;DHT22;441;51.192;6.788;2022-10-16T19:26:41;21.90;99.90
909;DHT22;441;51.192;6.788;2022-10-16T19:29:08;21.80;99.90
909;DHT22;441;51.192;6.788;2022-10-16T19:31:35;21.90;99.90
909;DHT22;441;51.192;6.788;2022-10-16T19:34:03;21.90;99.90
909;DHT22;441;51.192;6.788;2022-10-16T19:36:34;21.90;99.90
909;DHT22;441;51.192;6.788;2022-10-16T19:39:02;21.90;99.90
909;DHT22;441;51.192;6.788;2022-10-16T19:41:30;21.90;99.90
909;DHT22;441;51.192;6.788;2022-10-16T19:44:00;21.80;99.90
909;DHT22;441;51.192;6.788;2022-10-16T19:46:27;21.80;99.90
909;DHT22;441;51.192;6.788;2022-10-16T19:48:55;21.90;99.90
909;DHT22;441;51.192;6.788;2022-10-16T19:51:23;21.90;99.90
909;DHT22;441;51.192;6.788;2022-10-16T19:53:55;21.80;99.90
909;DHT22;441;51.192;6.788;2022-10-16T19:56:23;21.80;99.90
909;DHT22;441;51.192;6.788;2022-10-16T19:58:51;21.80;99.90
909;DHT22;441;51.192;6.788;2022-10-16T20:01:19;21.80;99.90
909;DHT22;441;51.192;6.788;2022-10-16T20:03:47;21.80;99.90
909;DHT22;441;51.192;6.788;2022-10-16T20:06:16;21.80;99.90
909;DHT22;441;51.192;6.788;2022-10-16T20:08:44;21.80;99.90
909;DHT22;441;51.192;6.788;2022-10-16T20:11:15;21.80;99.90
909;DHT22;441;51.192;6.788;2022-10-16T20:13:42;21.80;99.90
909;DHT22;441;51.192;6.788;2022-10-16T20:16:10;21.80;99.90
909;DHT22;441;51.192;6.788;2022-10-16T20:18:38;21.80;99.90
909;DHT22;441;51.192;6.788;2022-10-16T20:21:08;21.80;99.90
909;DHT22;441;51.192;6.788;2022-10-16T20:23:35;21.80;99.90
909;DHT22;441;51.192;6.788;2022-10-16T20:26:02;21.80;99.90
909;DHT22;441;51.192;6.788;2022-10-16T20:28:31;21.80;99.90
909;DHT22;441;51.192;6.788;2022-10-16T20:30:57;21.80;99.90
909;DHT22;441;51.192;6.788;2022-10-16T20:33:25;21.80;99.90
909;DHT22;441;51.192;6.788;2022-10-16T20:35:51;21.70;99.90
909;DHT22;441;51.192;6.788;2022-10-16T20:38:18;21.70;99.90
909;DHT22;441;51.192;6.788;2022-10-16T20:40:46;21.80;99.90
909;DHT22;441;51.192;6.788;2022-10-16T20:43:15;21.70;99.90
909;DHT22;441;51.192;6.788;2022-10-16T20:45:44;21.70;99.90
909;DHT22;441;51.192;6.788;2022-10-16T20:48:13;21.70;99.90
909;DHT22;441;51.192;6.788;2022-10-16T20:50:40;21.70;99.90
909;DHT22;441;51.192;6.788;2022-10-16T20:53:08;21.70;99.90
909;DHT22;441;51.192;6.788;2022-10-16T20:55:36;21.70;99.90
909;DHT22;441;51.192;6.788;2022-10-16T20:58:03;21.70;99.90
909;DHT22;441;51.192;6.788;2022-10-16T21:00:30;21.70;99.90
909;DHT22;441;51.192;6.788;2022-10-16T21:02:58;21.70;99.90
909;DHT22;441;51.192;6.788;2022-10-16T21:05:25;21.70;99.90
909;DHT22;441;51.192;6.788;2022-10-16T21:07:53;21.70;99.90
909;DHT22;441;51.192;6.788;2022-10-16T21:10:20;21.70;99.90
909;DHT22;441;51.192;6.788;2022-10-16T21:12:47;21.70;99.90
909;DHT22;441;51.192;6.788;2022-10-16T21:15:14;21.70;99.90
909;DHT22;441;51.192;6.788;2022-10-16T21:17:41;21.70;99.90
909;DHT22;441;51.192;6.788;2022-10-16T21:20:09;21.60;99.90
909;DHT22;441;51.192;6.788;2022-10-16T21:22:36;21.70;99.90
909;DHT22;441;51.192;6.788;2022-10-16T21:25:04;21.70;99.90
909;DHT22;441;51.192;6.788;2022-10-16T21:27:35;21.60;99.90
909;DHT22;441;51.192;6.788;2022-10-16T21:30:02;21.60;99.90
909;DHT22;441;51.192;6.788;2022-10-16T21:32:29;21.60;99.90
909;DHT22;441;51.192;6.788;2022-10-16T21:34:56;21.60;99.90
909;DHT22;441;51.192;6.788;2022-10-16T21:37:24;21.60;99.90
909;DHT22;441;51.192;6.788;2022-10-16T21:39:53;21.60;99.90
909;DHT22;441;51.192;6.788;2022-10-16T21:42:20;21.60;99.90
909;DHT22;441;51.192;6.788;2022-10-16T21:44:47;21.60;99.90
909;DHT22;441;51.192;6.788;2022-10-16T21:47:14;21.60;99.90
909;DHT22;441;51.192;6.788;2022-10-16T21:49:41;21.60;99.90
909;DHT22;441;51.192;6.788;2022-10-16T21:52:07;21.60;99.90
909;DHT22;441;51.192;6.788;2022-10-16T21:54:36;21.60;99.90
909;DHT22;441;51.192;6.788;2022-10-16T21:57:03;21.60;99.90
909;DHT22;441;51.192;6.788;2022-10-16T21:59:30;21.60;99.90
909;DHT22;441;51.192;6.788;2022-10-16T22:01:56;21.60;99.90
909;DHT22;441;51.192;6.788;2022-10-16T22:04:25;21.60;99.90
909;DHT22;441;51.192;6.788;2022-10-16T22:06:51;21.60;99.90
909;DHT22;441;51.192;6.788;2022-10-16T22:09:18;21.60;99.90
909;DHT22;441;51.192;6.788;2022-10-16T22:11:46;21.60;99.90
909;DHT22;441;51.192;6.788;2022-10-16T22:14:16;21.60;99.90
909;DHT22;441;51.192;6.788;2022-10-16T22:16:44;21.60;99.90
909;DHT22;441;51.192;6.788;2022-10-16T22:19:12;21.50;99.90
909;DHT22;441;51.192;6.788;2022-10-16T22:21:40;21.50;99.90
909;DHT22;441;51.192;6.788;2022-10-16T22:24:08;21.50;99.90
909;DHT22;441;51.192;6.788;2022-10-16T22:26:35;21.50;99.90
909;DHT22;441;51.192;6.788;2022-10-16T22:29:06;21.50;99.90
909;DHT22;441;51.192;6.788;2022-10-16T22:31:33;21.50;99.90
909;DHT22;441;51.192;6.788;2022-10-16T22:34:01;21.50;99.90
909;DHT22;441;51.192;6.788;2022-10-16T22:36:29;21.50;99.90
909;DHT22;441;51.192;6.788;2022-10-16T22:38:56;21.50;99.90
909;DHT22;441;51.192;6.788;2022-10-16T22:41:24;21.50;99.90
909;DHT22;441;51.192;6.788;2022-10-16T22:43:51;21.50;99.90
909;DHT22;441;51.192;6.788;2022-10-16T22:46:22;21.50;99.90
909;DHT22;441;51.192;6.788;2022-10-16T22:48:49;21.50;99.90
909;DHT22;441;51.192;6.788;2022-10-16T22:51:16;21.50;99.90
909;DHT22;441;51.192;6.788;2022-10-16T22:53:44;21.50;99.90
909;DHT22;441;51.192;6.788;2022-10-16T22:56:12;21.50;99.90
909;DHT22;441;51.192;6.788;2022-10-16T22:58:39;21.50;99.90
909;DHT22;441;51.192;6.788;2022-10-16T23:01:11;21.50;99.90
909;DHT22;441;51.192;6.788;2022-10-16T23:03:39;21.50;99.90
909;DHT22;441;51.192;6.788;2022-10-16T23:06:06;21.50;99.90
909;DHT22;441;51.192;6.788;2022-10-16T23:08:33;21.50;99.90
909;DHT22;441;51.192;6.788;2022-10-16T23:11:03;21.50;99.90
909;DHT22;441;51.192;6.788;2022-10-16T23:13:30;21.50;99.90
909;DHT22;441;51.192;6.788;2022-10-16T23:15:57;21.50;99.90
909;DHT22;441;51.192;6.788;2022-10-16T23:18:24;21.50;99.90
909;DHT22;441;51.192;6.788;2022-10-16T23:20:52;21.50;99.90
909;DHT22;441;51.192;6.788;2022-10-16T23:23:19;21.50;99.90
909;DHT22;441;51.192;6.788;2022-10-16T23:25:46;21.50;99.90
909;DHT22;441;51.192;6.788;2022-10-16T23:28:13;21.50;99.90
909;DHT22;441;51.192;6.788;2022-10-16T23:30:40;21.50;99.90
909;DHT22;441;51.192;6.788;2022-10-16T23:33:07;21.50;99.90
909;DHT22;441;51.192;6.788;2022-10-16T23:35:34;21.50;99.90
909;DHT22;441;51.192;6.788;2022-10-16T23:38:05;21.50;99.90
909;DHT22;441;51.192;6.788;2022-10-16T23:40:32;21.50;99.90
909;DHT22;441;51.192;6.788;2022-10-16T23:42:59;21.50;99.90
909;DHT22;441;51.192;6.788;2022-10-16T23:45:26;21.50;99.90
909;DHT22;441;51.192;6.788;2022-10-16T23:47:52;21.40;99.90
909;DHT22;441;51.192;6.788;2022-10-16T23:50:19;21.40;99.90
909;DHT22;441;51.192;6.788;2022-10-16T23:52:46;21.40;99.90
909;DHT22;441;51.192;6.788;2022-10-16T23:55:14;21.40;99.90
909;DHT22;441;51.192;6.788;2022-10-16T23:57:41;21.40;99.90
